Time;durP1;ratioP1;P1;durP2;ratioP2;P2;SDS_P1;SDS_P2;PMS_P1;PMS_P2;Temp;Humidity;BMP_temperature;BMP_pressure;BME280_temperature;BME280_humidity;BME280_pressure;Samples;Min_cycle;Max_cycle;Signal;HPM_P1;HPM_P2
2023/09/21 00:00:41;;;;;;;2.00;1.80;;;;;;;;;;5100993;28;20213;-67
2023/09/21 00:03:09;;;;;;;1.90;1.80;;;;;;;;;;5100776;28;20204;-67
2023/09/21 00:05:39;;;;;;;1.67;1.52;;;;;;;;;;5100929;28;20237;-67
2023/09/21 00:08:07;;;;;;;1.80;1.70;;;;;;;;;;5101248;28;20211;-67
2023/09/21 00:10:34;;;;;;;2.10;1.90;;;;;;;;;;5100819;28;20215;-67
2023/09/21 00:13:04;;;;;;;1.55;1.45;;;;;;;;;;5100862;28;20231;-67
2023/09/21 00:15:33;;;;;;;1.77;1.63;;;;;;;;;;5100756;28;20200;-67
2023/09/21 00:18:04;;;;;;;1.52;1.42;;;;;;;;;;5100738;28;20253;-66
2023/09/21 00:20:35;;;;;;;1.98;1.88;;;;;;;;;;5100623;28;20204;-66
2023/09/21 00:23:06;;;;;;;2.55;1.70;;;;;;;;;;5092578;28;20474;-66
2023/09/21 00:25:34;;;;;;;1.67;1.58;;;;;;;;;;5100697;28;20225;-67
2023/09/21 00:28:07;;;;;;;1.95;1.85;;;;;;;;;;5101059;28;20229;-66
2023/09/21 00:30:35;;;;;;;1.70;1.60;;;;;;;;;;5100311;28;20208;-66
2023/09/21 00:33:07;;;;;;;2.05;1.85;;;;;;;;;;5100726;28;20210;-67
2023/09/21 00:35:35;;;;;;;2.10;1.90;;;;;;;;;;5097190;28;20601;-66
2023/09/21 00:38:09;;;;;;;2.03;1.92;;;;;;;;;;5096039;28;20259;-66
2023/09/21 00:40:38;;;;;;;1.95;1.85;;;;;;;;;;5100314;28;20294;-66
2023/09/21 00:43:09;;;;;;;1.70;1.60;;;;;;;;;;5100642;28;20269;-66
2023/09/21 00:45:37;;;;;;;2.10;1.83;;;;;;;;;;5100208;28;20269;-67
2023/09/21 00:48:07;;;;;;;1.95;1.85;;;;;;;;;;5100249;28;20256;-66
2023/09/21 00:50:35;;;;;;;2.10;1.88;;;;;;;;;;5100095;28;20572;-68
2023/09/21 00:53:05;;;;;;;2.25;1.80;;;;;;;;;;5100303;28;20273;-67
2023/09/21 00:55:39;;;;;;;2.00;1.60;;;;;;;;;;5100043;28;20471;-67
2023/09/21 00:58:09;;;;;;;1.98;1.88;;;;;;;;;;5099317;28;20202;-67
2023/09/21 01:00:39;;;;;;;1.83;1.73;;;;;;;;;;5091227;28;20212;-67
2023/09/21 01:03:11;;;;;;;1.80;1.70;;;;;;;;;;5099397;28;20213;-67
2023/09/21 01:05:40;;;;;;;1.77;1.67;;;;;;;;;;5099844;28;20650;-67
2023/09/21 01:08:10;;;;;;;1.75;1.63;;;;;;;;;;5099720;28;20547;-67
2023/09/21 01:10:39;;;;;;;1.90;1.80;;;;;;;;;;5099735;28;20293;-67
2023/09/21 01:13:11;;;;;;;3.13;1.80;;;;;;;;;;5099570;28;20231;-67
2023/09/21 01:15:38;;;;;;;1.95;1.85;;;;;;;;;;5099555;28;20223;-67
2023/09/21 01:18:09;;;;;;;2.28;2.08;;;;;;;;;;5099782;28;20218;-67
2023/09/21 01:20:37;;;;;;;2.72;1.90;;;;;;;;;;5099476;28;20203;-67
2023/09/21 01:23:12;;;;;;;1.70;1.60;;;;;;;;;;5099409;28;20638;-67
2023/09/21 01:25:41;;;;;;;2.08;1.70;;;;;;;;;;5099700;28;20259;-67
2023/09/21 01:28:10;;;;;;;2.60;2.13;;;;;;;;;;5099303;28;20203;-68
2023/09/21 01:30:38;;;;;;;1.88;1.77;;;;;;;;;;5099436;28;20257;-67
2023/09/21 01:33:09;;;;;;;1.92;1.73;;;;;;;;;;5098885;28;20277;-67
2023/09/21 01:35:38;;;;;;;1.73;1.63;;;;;;;;;;5099338;28;20207;-68
2023/09/21 01:38:06;;;;;;;2.20;2.00;;;;;;;;;;5099258;28;20204;-68
2023/09/21 01:40:34;;;;;;;1.80;1.70;;;;;;;;;;5099220;28;20252;-67
2023/09/21 01:43:05;;;;;;;1.80;1.70;;;;;;;;;;5090816;28;20203;-67
2023/09/21 01:45:33;;;;;;;2.00;1.90;;;;;;;;;;5099199;28;20555;-67
2023/09/21 01:48:01;;;;;;;2.10;2.00;;;;;;;;;;5099188;28;20287;-67
2023/09/21 01:50:29;;;;;;;1.85;1.75;;;;;;;;;;5098972;28;20215;-67
2023/09/21 01:52:57;;;;;;;2.20;2.00;;;;;;;;;;5099064;28;20234;-67
2023/09/21 01:55:24;;;;;;;1.80;1.70;;;;;;;;;;5090285;28;20211;-67
2023/09/21 01:57:53;;;;;;;1.77;1.67;;;;;;;;;;5098556;28;20214;-67
2023/09/21 02:00:27;;;;;;;1.70;1.60;;;;;;;;;;5098636;28;20677;-67
2023/09/21 02:02:55;;;;;;;2.38;1.67;;;;;;;;;;5097705;28;20203;-67
2023/09/21 02:05:24;;;;;;;1.83;1.73;;;;;;;;;;5098638;28;20326;-67
2023/09/21 02:07:51;;;;;;;2.30;1.90;;;;;;;;;;5098794;28;20211;-66
2023/09/21 02:10:19;;;;;;;1.70;1.60;;;;;;;;;;5090501;28;20203;-67
2023/09/21 02:12:56;;;;;;;1.80;1.65;;;;;;;;;;5098206;28;20246;-66
2023/09/21 02:15:26;;;;;;;1.63;1.52;;;;;;;;;;5098285;28;20199;-66
2023/09/21 02:17:55;;;;;;;1.98;1.88;;;;;;;;;;5098430;28;20542;-67
2023/09/21 02:20:23;;;;;;;1.83;1.73;;;;;;;;;;5098299;28;20306;-66
2023/09/21 02:22:52;;;;;;;1.92;1.83;;;;;;;;;;5089925;28;20523;-66
2023/09/21 02:25:21;;;;;;;1.65;1.55;;;;;;;;;;5098024;28;20282;-66
2023/09/21 02:27:48;;;;;;;2.08;1.90;;;;;;;;;;5098110;28;20204;-66
2023/09/21 02:30:17;;;;;;;2.38;1.90;;;;;;;;;;5098138;28;20256;-66
2023/09/21 02:32:48;;;;;;;2.03;1.92;;;;;;;;;;5097796;28;20211;-67
2023/09/21 02:35:16;;;;;;;2.25;2.05;;;;;;;;;;5096421;28;20199;-66
2023/09/21 02:37:45;;;;;;;2.05;1.90;;;;;;;;;;5091045;28;20215;-67
2023/09/21 02:40:15;;;;;;;1.77;1.67;;;;;;;;;;5097439;28;20290;-67
2023/09/21 02:42:44;;;;;;;1.77;1.67;;;;;;;;;;5098002;28;20203;-67
2023/09/21 02:45:12;;;;;;;2.22;2.03;;;;;;;;;;5097537;28;20235;-67
2023/09/21 02:47:41;;;;;;;2.03;1.77;;;;;;;;;;5097994;28;20218;-67
2023/09/21 02:50:15;;;;;;;1.90;1.80;;;;;;;;;;5089813;28;20212;-67
2023/09/21 02:52:47;;;;;;;1.92;1.83;;;;;;;;;;5097887;28;20204;-67
2023/09/21 02:55:18;;;;;;;1.88;1.77;;;;;;;;;;5097823;28;20200;-67
2023/09/21 02:57:47;;;;;;;1.70;1.60;;;;;;;;;;5097591;28;20215;-67
2023/09/21 03:00:27;;;;;;;2.13;2.03;;;;;;;;;;5097837;28;20204;-66
2023/09/21 03:02:56;;;;;;;1.75;1.65;;;;;;;;;;5091356;28;20262;-67
2023/09/21 03:05:27;;;;;;;2.25;1.90;;;;;;;;;;5096302;28;20226;-67
2023/09/21 03:07:55;;;;;;;2.22;2.13;;;;;;;;;;5097860;28;20318;-67
2023/09/21 03:10:23;;;;;;;2.00;1.90;;;;;;;;;;5097650;28;20213;-67
2023/09/21 03:12:51;;;;;;;2.10;1.92;;;;;;;;;;5097000;28;20239;-67
2023/09/21 03:15:19;;;;;;;1.80;1.70;;;;;;;;;;5099251;28;20584;-66
2023/09/21 03:17:47;;;;;;;1.80;1.70;;;;;;;;;;5093140;28;20204;-67
2023/09/21 03:20:23;;;;;;;1.90;1.80;;;;;;;;;;5101356;28;20247;-67
2023/09/21 03:22:54;;;;;;;1.90;1.80;;;;;;;;;;5101787;28;20280;-67
2023/09/21 03:25:28;;;;;;;2.05;1.95;;;;;;;;;;5101349;28;20322;-67
2023/09/21 03:27:56;;;;;;;2.00;1.90;;;;;;;;;;5101225;28;20203;-68
2023/09/21 03:30:26;;;;;;;2.28;2.08;;;;;;;;;;5092996;28;20204;-67
2023/09/21 03:32:53;;;;;;;2.15;2.00;;;;;;;;;;5101127;28;20265;-67
2023/09/21 03:35:24;;;;;;;2.20;2.00;;;;;;;;;;5100840;28;20207;-67
2023/09/21 03:37:54;;;;;;;2.03;1.90;;;;;;;;;;5100898;28;20208;-67
2023/09/21 03:40:22;;;;;;;2.40;1.80;;;;;;;;;;5101029;28;20215;-67
2023/09/21 03:42:50;;;;;;;1.90;1.80;;;;;;;;;;5101292;28;20207;-67
2023/09/21 03:45:20;;;;;;;1.90;1.80;;;;;;;;;;5092713;28;20258;-67
2023/09/21 03:47:47;;;;;;;1.85;1.73;;;;;;;;;;5101038;28;20290;-67
2023/09/21 03:50:17;;;;;;;1.95;1.85;;;;;;;;;;5100960;28;20211;-67
2023/09/21 03:52:47;;;;;;;2.20;2.00;;;;;;;;;;5100648;28;20199;-67
2023/09/21 03:55:16;;;;;;;1.98;1.88;;;;;;;;;;5100086;28;20290;-67
2023/09/21 03:57:46;;;;;;;2.13;1.92;;;;;;;;;;5100321;28;20577;-67
2023/09/21 04:00:26;;;;;;;2.03;1.92;;;;;;;;;;5099916;28;20203;-67
2023/09/21 04:02:53;;;;;;;2.08;1.98;;;;;;;;;;5100665;28;20253;-67
2023/09/21 04:05:21;;;;;;;2.33;2.13;;;;;;;;;;5100392;28;20270;-67
2023/09/21 04:07:49;;;;;;;1.90;1.80;;;;;;;;;;5100602;28;20281;-67
2023/09/21 04:10:18;;;;;;;2.00;1.90;;;;;;;;;;5100403;28;20210;-67
2023/09/21 04:12:45;;;;;;;2.03;1.92;;;;;;;;;;5100106;28;20270;-67
2023/09/21 04:15:13;;;;;;;1.67;1.58;;;;;;;;;;5100076;28;20230;-66
2023/09/21 04:17:40;;;;;;;1.70;1.60;;;;;;;;;;5100346;28;20215;-67
2023/09/21 04:20:13;;;;;;;1.90;1.80;;;;;;;;;;5100302;28;20298;-66
2023/09/21 04:22:41;;;;;;;2.33;1.80;;;;;;;;;;5092909;28;20604;-66
2023/09/21 04:25:09;;;;;;;1.80;1.70;;;;;;;;;;5099196;28;20255;-66
2023/09/21 04:27:39;;;;;;;2.10;1.92;;;;;;;;;;5099119;28;20222;-67
2023/09/21 04:30:08;;;;;;;2.15;2.05;;;;;;;;;;5099338;28;20265;-67
2023/09/21 04:32:37;;;;;;;1.90;1.60;;;;;;;;;;5099764;28;20214;-66
2023/09/21 04:35:05;;;;;;;1.98;1.70;;;;;;;;;;5098910;28;20616;-67
2023/09/21 04:37:34;;;;;;;2.05;1.80;;;;;;;;;;5098369;28;20290;-67
2023/09/21 04:40:04;;;;;;;2.20;2.00;;;;;;;;;;5098187;28;20234;-67
2023/09/21 04:42:31;;;;;;;2.28;1.90;;;;;;;;;;5097022;28;20635;-67
2023/09/21 04:45:00;;;;;;;1.80;1.70;;;;;;;;;;5097590;28;20209;-67
2023/09/21 04:47:28;;;;;;;2.13;1.98;;;;;;;;;;5097795;28;20204;-67
2023/09/21 04:49:55;;;;;;;1.75;1.65;;;;;;;;;;5097632;28;20274;-67
2023/09/21 04:52:24;;;;;;;2.53;1.95;;;;;;;;;;5098258;28;20238;-67
2023/09/21 04:54:52;;;;;;;2.28;2.10;;;;;;;;;;5097777;28;20211;-67
2023/09/21 04:57:20;;;;;;;2.25;2.05;;;;;;;;;;5097853;28;20207;-67
2023/09/21 04:59:48;;;;;;;1.98;1.88;;;;;;;;;;5097714;28;20211;-67
2023/09/21 05:02:17;;;;;;;1.90;1.80;;;;;;;;;;5097621;28;20200;-67
2023/09/21 05:04:44;;;;;;;1.80;1.70;;;;;;;;;;5096478;28;20608;-67
2023/09/21 05:07:14;;;;;;;1.88;1.77;;;;;;;;;;5095889;28;20587;-67
2023/09/21 05:09:41;;;;;;;1.88;1.77;;;;;;;;;;5095662;28;20195;-67
2023/09/21 05:12:09;;;;;;;1.90;1.80;;;;;;;;;;5096023;28;20571;-67
2023/09/21 05:14:37;;;;;;;2.17;2.08;;;;;;;;;;5096773;28;20247;-67
2023/09/21 05:17:05;;;;;;;2.00;1.80;;;;;;;;;;5096780;28;20537;-67
2023/09/21 05:19:34;;;;;;;2.70;1.63;;;;;;;;;;5095252;28;20241;-67
2023/09/21 05:22:02;;;;;;;1.85;1.73;;;;;;;;;;5094981;28;20365;-67
2023/09/21 05:24:30;;;;;;;1.80;1.70;;;;;;;;;;5096030;28;20214;-67
2023/09/21 05:26:57;;;;;;;2.13;1.77;;;;;;;;;;5095924;28;20223;-67
2023/09/21 05:29:25;;;;;;;1.83;1.73;;;;;;;;;;5096726;28;20205;-67
2023/09/21 05:31:52;;;;;;;2.03;1.90;;;;;;;;;;5096034;28;20204;-67
2023/09/21 05:34:20;;;;;;;1.95;1.80;;;;;;;;;;5096639;28;20246;-67
2023/09/21 05:36:51;;;;;;;2.35;2.15;;;;;;;;;;5095811;28;20767;-66
2023/09/21 05:39:19;;;;;;;1.90;1.80;;;;;;;;;;5096276;28;20654;-67
2023/09/21 05:41:47;;;;;;;1.92;1.83;;;;;;;;;;5095722;28;20332;-67
2023/09/21 05:44:15;;;;;;;1.70;1.60;;;;;;;;;;5095702;28;20501;-67
2023/09/21 05:46:42;;;;;;;2.00;1.80;;;;;;;;;;5095949;28;20227;-67
2023/09/21 05:49:11;;;;;;;2.00;1.80;;;;;;;;;;5096043;28;20481;-66
2023/09/21 05:51:39;;;;;;;1.83;1.73;;;;;;;;;;5096195;28;20261;-67
2023/09/21 05:54:09;;;;;;;2.00;1.90;;;;;;;;;;5096122;28;20594;-66
2023/09/21 05:56:37;;;;;;;1.90;1.80;;;;;;;;;;5097037;28;20204;-67
2023/09/21 05:59:05;;;;;;;2.00;1.80;;;;;;;;;;5096475;28;20268;-67
2023/09/21 06:01:32;;;;;;;2.10;1.88;;;;;;;;;;5096183;28;20293;-67
2023/09/21 06:04:02;;;;;;;2.05;1.95;;;;;;;;;;5096574;28;20204;-67
2023/09/21 06:06:30;;;;;;;2.13;2.00;;;;;;;;;;5095916;28;20647;-66
2023/09/21 06:08:58;;;;;;;2.42;2.22;;;;;;;;;;5096362;28;20203;-67
2023/09/21 06:11:29;;;;;;;2.30;2.10;;;;;;;;;;5096080;28;20199;-67
2023/09/21 06:13:56;;;;;;;2.03;1.92;;;;;;;;;;5096234;28;20608;-67
2023/09/21 06:16:24;;;;;;;2.55;2.13;;;;;;;;;;5096708;28;20554;-67
2023/09/21 06:18:51;;;;;;;1.90;1.80;;;;;;;;;;5096560;28;20231;-67
2023/09/21 06:21:19;;;;;;;2.08;1.92;;;;;;;;;;5096269;28;20415;-67
2023/09/21 06:23:49;;;;;;;2.42;1.92;;;;;;;;;;5096212;28;20580;-66
2023/09/21 06:26:16;;;;;;;2.13;2.00;;;;;;;;;;5095393;28;20769;-67
2023/09/21 06:28:47;;;;;;;2.17;1.88;;;;;;;;;;5096588;28;20314;-67
2023/09/21 06:31:14;;;;;;;2.42;2.00;;;;;;;;;;5095773;28;20203;-67
2023/09/21 06:33:42;;;;;;;1.90;1.80;;;;;;;;;;5095848;28;20238;-67
2023/09/21 06:36:15;;;;;;;2.92;2.00;;;;;;;;;;5096040;28;20200;-67
2023/09/21 06:38:43;;;;;;;2.38;1.95;;;;;;;;;;5094901;28;20286;-67
2023/09/21 06:41:11;;;;;;;2.25;2.05;;;;;;;;;;5095215;28;20580;-68
2023/09/21 06:43:40;;;;;;;2.65;1.88;;;;;;;;;;5095343;28;20200;-67
2023/09/21 06:46:08;;;;;;;2.33;1.92;;;;;;;;;;5096102;28;20509;-67
2023/09/21 06:48:36;;;;;;;2.00;1.90;;;;;;;;;;5095747;28;20246;-67
2023/09/21 06:51:04;;;;;;;2.63;1.92;;;;;;;;;;5095869;28;20593;-67
2023/09/21 06:53:32;;;;;;;2.60;2.05;;;;;;;;;;5095121;28;20242;-67
2023/09/21 06:56:00;;;;;;;3.13;2.30;;;;;;;;;;5095902;28;20215;-67
2023/09/21 06:58:28;;;;;;;2.13;1.90;;;;;;;;;;5096030;28;20200;-67
2023/09/21 07:00:55;;;;;;;2.30;1.92;;;;;;;;;;5095824;28;20237;-67
2023/09/21 07:03:24;;;;;;;2.10;1.90;;;;;;;;;;5096056;28;20298;-66
2023/09/21 07:05:51;;;;;;;2.55;2.15;;;;;;;;;;5094825;28;20207;-67
2023/09/21 07:08:20;;;;;;;3.78;2.20;;;;;;;;;;5095237;28;20211;-67
2023/09/21 07:10:48;;;;;;;3.65;2.28;;;;;;;;;;5094970;28;20291;-67
2023/09/21 07:13:18;;;;;;;2.40;2.00;;;;;;;;;;5093725;28;20556;-67
2023/09/21 07:15:47;;;;;;;2.95;2.25;;;;;;;;;;5094841;28;20214;-67
2023/09/21 07:18:15;;;;;;;2.30;2.10;;;;;;;;;;5094919;28;20219;-67
2023/09/21 07:20:44;;;;;;;2.30;2.03;;;;;;;;;;5094251;28;20322;-67
2023/09/21 07:23:11;;;;;;;6.10;2.33;;;;;;;;;;5095613;28;20203;-67
2023/09/21 07:25:39;;;;;;;2.22;1.95;;;;;;;;;;5094866;28;20208;-67
2023/09/21 07:28:07;;;;;;;4.25;2.70;;;;;;;;;;5095286;28;20495;-67
2023/09/21 07:30:36;;;;;;;2.60;1.70;;;;;;;;;;5095385;28;20204;-66
2023/09/21 07:33:05;;;;;;;2.90;1.92;;;;;;;;;;5095291;28;20231;-66
2023/09/21 07:35:33;;;;;;;3.42;1.70;;;;;;;;;;5094777;28;20521;-66
2023/09/21 07:38:02;;;;;;;3.83;2.00;;;;;;;;;;5095460;28;20200;-66
2023/09/21 07:40:31;;;;;;;3.20;1.92;;;;;;;;;;5094966;28;20251;-67
2023/09/21 07:42:58;;;;;;;2.58;1.83;;;;;;;;;;5111458;28;20480;-67
2023/09/21 07:45:26;;;;;;;2.25;1.80;;;;;;;;;;5109944;28;20217;-67
2023/09/21 07:47:54;;;;;;;3.40;2.00;;;;;;;;;;5115806;28;20724;-67
2023/09/21 07:50:23;;;;;;;4.13;2.20;;;;;;;;;;5114890;28;20234;-67
2023/09/21 07:52:53;;;;;;;2.40;2.20;;;;;;;;;;5114210;28;20306;-67
2023/09/21 07:55:22;;;;;;;4.30;2.22;;;;;;;;;;5114541;28;20210;-67
2023/09/21 07:57:50;;;;;;;1.70;1.60;;;;;;;;;;5108469;28;20546;-66
2023/09/21 08:00:18;;;;;;;3.58;2.47;;;;;;;;;;5115808;28;20203;-67
2023/09/21 08:02:46;;;;;;;5.30;2.53;;;;;;;;;;5117903;28;20217;-67
2023/09/21 08:05:13;;;;;;;3.95;2.20;;;;;;;;;;5119013;28;20259;-66
2023/09/21 08:07:41;;;;;;;3.25;2.08;;;;;;;;;;5118078;28;20868;-67
2023/09/21 08:10:10;;;;;;;2.78;2.10;;;;;;;;;;5117307;28;20234;-67
2023/09/21 08:12:41;;;;;;;2.20;2.00;;;;;;;;;;5109591;28;20242;-66
2023/09/21 08:15:10;;;;;;;3.00;1.80;;;;;;;;;;5118223;28;20784;-66
2023/09/21 08:17:38;;;;;;;3.60;2.10;;;;;;;;;;5119296;28;20203;-67
2023/09/21 08:20:06;;;;;;;3.85;2.30;;;;;;;;;;5118721;28;20230;-67
2023/09/21 08:22:34;;;;;;;2.28;2.08;;;;;;;;;;5116732;28;20203;-67
2023/09/21 08:25:04;;;;;;;2.70;2.35;;;;;;;;;;5118466;28;20289;-67
2023/09/21 08:27:31;;;;;;;4.05;2.40;;;;;;;;;;5119081;28;20229;-66
2023/09/21 08:30:03;;;;;;;2.55;2.20;;;;;;;;;;5118311;28;20567;-67
2023/09/21 08:32:31;;;;;;;3.30;2.25;;;;;;;;;;5116385;28;20263;-67
2023/09/21 08:34:58;;;;;;;3.72;2.60;;;;;;;;;;5114053;28;20199;-67
2023/09/21 08:37:26;;;;;;;2.88;2.17;;;;;;;;;;5118068;28;20214;-67
2023/09/21 08:39:53;;;;;;;2.10;1.90;;;;;;;;;;5117839;28;20209;-67
2023/09/21 08:42:21;;;;;;;2.58;2.17;;;;;;;;;;5117687;28;20213;-67
2023/09/21 08:44:49;;;;;;;2.25;2.05;;;;;;;;;;5118102;28;20216;-67
2023/09/21 08:47:19;;;;;;;2.15;1.95;;;;;;;;;;5118112;28;20219;-67
2023/09/21 08:49:48;;;;;;;2.25;2.05;;;;;;;;;;5117804;28;20264;-66
2023/09/21 08:52:15;;;;;;;2.13;1.90;;;;;;;;;;5117552;28;20238;-67
2023/09/21 08:54:43;;;;;;;1.75;1.65;;;;;;;;;;5117425;28;20225;-67
2023/09/21 08:57:12;;;;;;;2.35;2.05;;;;;;;;;;5117581;28;20550;-66
2023/09/21 08:59:42;;;;;;;2.13;1.92;;;;;;;;;;5118146;28;20203;-67
2023/09/21 09:02:12;;;;;;;3.00;2.10;;;;;;;;;;5117681;28;20598;-67
2023/09/21 09:04:42;;;;;;;1.98;1.88;;;;;;;;;;5117764;28;20462;-67
2023/09/21 09:07:10;;;;;;;3.35;2.20;;;;;;;;;;5118064;28;20223;-67
2023/09/21 09:09:39;;;;;;;3.45;2.35;;;;;;;;;;5117712;28;20760;-67
2023/09/21 09:12:07;;;;;;;2.05;1.88;;;;;;;;;;5116629;28;20788;-66
2023/09/21 09:14:35;;;;;;;2.00;1.88;;;;;;;;;;5116795;28;20549;-67
2023/09/21 09:17:14;;;;;;;2.08;1.85;;;;;;;;;;5117825;28;20199;-67
2023/09/21 09:19:43;;;;;;;2.20;2.00;;;;;;;;;;5117738;28;20210;-66
2023/09/21 09:22:11;;;;;;;2.13;1.92;;;;;;;;;;5116247;28;20207;-66
2023/09/21 09:24:39;;;;;;;2.22;2.03;;;;;;;;;;5116973;28;20206;-66
2023/09/21 09:27:06;;;;;;;2.35;2.10;;;;;;;;;;5117096;28;20230;-66
2023/09/21 09:29:34;;;;;;;2.85;2.45;;;;;;;;;;5117335;28;20311;-66
2023/09/21 09:32:03;;;;;;;2.20;2.00;;;;;;;;;;5116565;28;20203;-66
2023/09/21 09:34:30;;;;;;;3.28;2.30;;;;;;;;;;5116067;28;20209;-68
2023/09/21 09:36:59;;;;;;;2.20;2.00;;;;;;;;;;5116598;28;20548;-68
2023/09/21 09:39:27;;;;;;;2.67;2.47;;;;;;;;;;5115837;28;20203;-69
2023/09/21 09:41:55;;;;;;;2.13;2.03;;;;;;;;;;5114971;28;20662;-68
2023/09/21 09:44:24;;;;;;;2.45;2.25;;;;;;;;;;5115857;28;20198;-69
2023/09/21 09:46:56;;;;;;;2.35;2.15;;;;;;;;;;5116562;28;20223;-68
2023/09/21 09:49:26;;;;;;;2.78;2.22;;;;;;;;;;5116323;28;20213;-68
2023/09/21 09:51:55;;;;;;;2.35;2.15;;;;;;;;;;5115640;28;20203;-66
2023/09/21 09:54:26;;;;;;;2.75;2.50;;;;;;;;;;5116204;28;20198;-67
2023/09/21 09:56:55;;;;;;;3.58;2.47;;;;;;;;;;5115305;28;20283;-66
2023/09/21 09:59:23;;;;;;;2.60;2.40;;;;;;;;;;5115794;28;20234;-66
2023/09/21 10:01:51;;;;;;;2.55;2.35;;;;;;;;;;5116359;28;20246;-66
2023/09/21 10:04:19;;;;;;;2.90;2.30;;;;;;;;;;5107325;28;20206;-66
2023/09/21 10:06:47;;;;;;;2.53;2.20;;;;;;;;;;5095805;28;20580;-66
2023/09/21 10:09:16;;;;;;;2.25;2.05;;;;;;;;;;5095304;28;20290;-66
2023/09/21 10:11:46;;;;;;;2.75;2.40;;;;;;;;;;5095205;28;20234;-66
2023/09/21 10:14:15;;;;;;;2.70;2.17;;;;;;;;;;5094652;28;20243;-67
2023/09/21 10:16:49;;;;;;;2.67;2.30;;;;;;;;;;5095134;28;20207;-67
2023/09/21 10:19:18;;;;;;;1.95;1.85;;;;;;;;;;5094912;28;20222;-66
2023/09/21 10:21:46;;;;;;;2.17;1.98;;;;;;;;;;5095943;28;20250;-66
2023/09/21 10:24:18;;;;;;;2.17;1.90;;;;;;;;;;5095347;28;20207;-66
2023/09/21 10:26:50;;;;;;;2.20;1.73;;;;;;;;;;5094524;28;20254;-66
2023/09/21 10:29:20;;;;;;;2.17;1.98;;;;;;;;;;5095036;28;20573;-69
2023/09/21 10:31:53;;;;;;;2.15;2.00;;;;;;;;;;5094219;28;20488;-67
2023/09/21 10:34:22;;;;;;;2.30;2.10;;;;;;;;;;5093639;28;20199;-68
2023/09/21 10:36:53;;;;;;;2.50;1.90;;;;;;;;;;5093258;28;20204;-67
2023/09/21 10:39:31;;;;;;;2.50;2.10;;;;;;;;;;5094405;28;20230;-67
2023/09/21 10:42:15;;;;;;;3.13;2.13;;;;;;;;;;5093445;28;20246;-66
2023/09/21 10:44:57;;;;;;;2.70;2.28;;;;;;;;;;5079654;28;20349;-67
2023/09/21 10:47:29;;;;;;;2.50;2.10;;;;;;;;;;5093099;28;20235;-67
2023/09/21 10:50:00;;;;;;;2.13;1.92;;;;;;;;;;5095403;28;20204;-67
2023/09/21 10:52:29;;;;;;;2.42;2.22;;;;;;;;;;5095360;28;20211;-67
2023/09/21 10:54:56;;;;;;;2.58;2.38;;;;;;;;;;5094954;28;20206;-67
2023/09/21 10:57:25;;;;;;;2.53;2.33;;;;;;;;;;5094244;28;20238;-67
2023/09/21 10:59:53;;;;;;;3.53;2.10;;;;;;;;;;5093487;28;20208;-67
2023/09/21 11:02:22;;;;;;;2.58;2.10;;;;;;;;;;5094285;28;20490;-69
2023/09/21 11:04:51;;;;;;;2.40;2.20;;;;;;;;;;5094911;28;20557;-69
2023/09/21 11:07:19;;;;;;;2.83;2.50;;;;;;;;;;5095223;28;20227;-68
2023/09/21 11:09:47;;;;;;;3.10;2.33;;;;;;;;;;5093544;28;20208;-67
2023/09/21 11:12:14;;;;;;;3.33;2.40;;;;;;;;;;5093357;28;20211;-67
2023/09/21 11:14:43;;;;;;;2.70;2.30;;;;;;;;;;5094298;28;20561;-67
2023/09/21 11:17:12;;;;;;;2.63;2.42;;;;;;;;;;5094139;28;20203;-67
2023/09/21 11:19:41;;;;;;;2.78;2.50;;;;;;;;;;5093835;28;20204;-67
2023/09/21 11:22:10;;;;;;;3.17;2.88;;;;;;;;;;5093999;28;20207;-67
2023/09/21 11:24:38;;;;;;;2.80;2.60;;;;;;;;;;5094760;28;20199;-67
2023/09/21 11:27:07;;;;;;;3.30;2.92;;;;;;;;;;5093185;28;20214;-68
2023/09/21 11:29:35;;;;;;;2.75;2.50;;;;;;;;;;5092817;28;20200;-67
2023/09/21 11:32:03;;;;;;;3.70;2.67;;;;;;;;;;5092723;28;20205;-67
2023/09/21 11:34:31;;;;;;;3.33;2.70;;;;;;;;;;5093394;28;20211;-67
2023/09/21 11:37:00;;;;;;;2.58;2.38;;;;;;;;;;5097372;28;20195;-67
2023/09/21 11:39:29;;;;;;;3.08;2.60;;;;;;;;;;5097857;28;20206;-67
2023/09/21 11:41:57;;;;;;;2.88;2.67;;;;;;;;;;5098029;28;20231;-67
2023/09/21 11:44:28;;;;;;;2.97;2.67;;;;;;;;;;5098164;28;20589;-67
2023/09/21 11:46:57;;;;;;;4.07;3.08;;;;;;;;;;5098268;28;20620;-67
2023/09/21 11:49:35;;;;;;;2.92;2.63;;;;;;;;;;5097197;28;20234;-68
2023/09/21 11:52:04;;;;;;;2.72;2.53;;;;;;;;;;5096515;28;20303;-67
2023/09/21 11:54:34;;;;;;;2.90;2.47;;;;;;;;;;5097793;28;20242;-67
2023/09/21 11:57:03;;;;;;;3.78;2.70;;;;;;;;;;5096131;28;20207;-67
2023/09/21 11:59:32;;;;;;;2.92;2.72;;;;;;;;;;5097700;28;20302;-68
2023/09/21 12:02:00;;;;;;;3.80;2.42;;;;;;;;;;5097129;28;20204;-68
2023/09/21 12:04:29;;;;;;;3.10;2.80;;;;;;;;;;5096432;28;20314;-68
2023/09/21 12:06:56;;;;;;;2.90;2.60;;;;;;;;;;5097185;28;20203;-68
2023/09/21 12:09:26;;;;;;;3.10;2.85;;;;;;;;;;5097671;28;20267;-68
2023/09/21 12:11:54;;;;;;;3.10;2.70;;;;;;;;;;5096755;28;20265;-68
2023/09/21 12:14:22;;;;;;;3.00;2.65;;;;;;;;;;5096309;28;20242;-68
2023/09/21 12:16:53;;;;;;;2.88;2.67;;;;;;;;;;5096700;28;20664;-68
2023/09/21 12:19:22;;;;;;;2.88;2.50;;;;;;;;;;5095789;28;20195;-68
2023/09/21 12:21:50;;;;;;;3.97;2.70;;;;;;;;;;5095831;28;20250;-68
2023/09/21 12:24:21;;;;;;;3.08;2.83;;;;;;;;;;5097446;28;20200;-67
2023/09/21 12:26:51;;;;;;;2.80;2.53;;;;;;;;;;5096739;28;20203;-67
2023/09/21 12:29:18;;;;;;;2.88;2.58;;;;;;;;;;5096766;28;20300;-68
2023/09/21 12:31:46;;;;;;;2.97;2.70;;;;;;;;;;5096323;28;20223;-67
2023/09/21 12:34:14;;;;;;;3.20;2.63;;;;;;;;;;5096529;28;20199;-68
2023/09/21 12:36:42;;;;;;;3.88;2.80;;;;;;;;;;5096594;28;20257;-68
2023/09/21 12:39:10;;;;;;;4.88;2.88;;;;;;;;;;5096182;28;20207;-68
2023/09/21 12:41:39;;;;;;;2.88;2.67;;;;;;;;;;5096447;28;20199;-68
2023/09/21 12:44:10;;;;;;;2.95;2.65;;;;;;;;;;5094927;28;20296;-68
2023/09/21 12:46:37;;;;;;;3.00;2.70;;;;;;;;;;5096394;28;20212;-68
2023/09/21 12:49:05;;;;;;;3.45;2.75;;;;;;;;;;5095521;28;20243;-68
2023/09/21 12:51:33;;;;;;;3.47;2.50;;;;;;;;;;5096262;28;20199;-68
2023/09/21 12:54:01;;;;;;;3.00;2.80;;;;;;;;;;5096011;28;20200;-67
2023/09/21 12:56:28;;;;;;;3.33;3.00;;;;;;;;;;5095300;28;20781;-68
2023/09/21 12:58:58;;;;;;;4.20;3.10;;;;;;;;;;5097107;28;20253;-68
2023/09/21 13:01:28;;;;;;;3.08;2.85;;;;;;;;;;5096099;28;20206;-68
2023/09/21 13:03:55;;;;;;;3.63;3.33;;;;;;;;;;5096258;28;20199;-68
2023/09/21 13:06:23;;;;;;;3.40;2.97;;;;;;;;;;5096526;28;20212;-67
2023/09/21 13:08:50;;;;;;;4.18;3.30;;;;;;;;;;5095746;28;20228;-68
2023/09/21 13:11:18;;;;;;;3.33;3.03;;;;;;;;;;5095703;28;20563;-68
2023/09/21 13:13:46;;;;;;;3.92;3.50;;;;;;;;;;5095885;28;20238;-68
2023/09/21 13:16:13;;;;;;;3.38;3.08;;;;;;;;;;5096069;28;20214;-68
2023/09/21 13:18:42;;;;;;;3.60;3.08;;;;;;;;;;5095718;28;20599;-68
2023/09/21 13:21:10;;;;;;;3.40;3.10;;;;;;;;;;5096274;28;20203;-68
2023/09/21 13:23:38;;;;;;;4.10;3.70;;;;;;;;;;5095483;28;20203;-68
2023/09/21 13:26:06;;;;;;;4.03;3.47;;;;;;;;;;5094604;28;20470;-68
2023/09/21 13:28:34;;;;;;;3.80;3.50;;;;;;;;;;5095372;28;20293;-68
2023/09/21 13:31:04;;;;;;;3.50;3.20;;;;;;;;;;5095312;28;20200;-69
2023/09/21 13:33:31;;;;;;;3.25;3.03;;;;;;;;;;5095575;28;20716;-68
2023/09/21 13:36:01;;;;;;;3.50;3.20;;;;;;;;;;5095452;28;20601;-68
2023/09/21 13:38:28;;;;;;;3.50;3.20;;;;;;;;;;5094899;28;20207;-67
2023/09/21 13:40:57;;;;;;;5.97;3.65;;;;;;;;;;5095831;28;20214;-68
2023/09/21 13:43:25;;;;;;;3.85;3.50;;;;;;;;;;5096029;28;20319;-68
2023/09/21 13:45:53;;;;;;;3.92;3.53;;;;;;;;;;5095638;28;20199;-68
2023/09/21 13:48:22;;;;;;;4.40;3.70;;;;;;;;;;5095224;28;20625;-68
2023/09/21 13:50:50;;;;;;;5.80;3.78;;;;;;;;;;5095897;28;20230;-68
2023/09/21 13:53:19;;;;;;;5.03;3.65;;;;;;;;;;5095605;28;20230;-68
2023/09/21 13:55:47;;;;;;;4.30;3.90;;;;;;;;;;5092983;28;20551;-68
2023/09/21 13:58:15;;;;;;;4.65;4.25;;;;;;;;;;5092288;28;20196;-68
2023/09/21 14:00:42;;;;;;;4.65;4.00;;;;;;;;;;5093269;28;20200;-68
2023/09/21 14:03:11;;;;;;;4.53;3.85;;;;;;;;;;5093433;28;20278;-68
2023/09/21 14:05:38;;;;;;;5.57;3.90;;;;;;;;;;5093861;28;20269;-68
2023/09/21 14:08:09;;;;;;;4.88;3.90;;;;;;;;;;5092951;28;20569;-68
2023/09/21 14:10:38;;;;;;;4.38;4.00;;;;;;;;;;5093726;28;20211;-68
2023/09/21 14:13:06;;;;;;;4.82;4.28;;;;;;;;;;5099120;28;20291;-69
2023/09/21 14:15:33;;;;;;;4.10;3.80;;;;;;;;;;5114686;28;20207;-68
2023/09/21 14:18:03;;;;;;;5.75;4.25;;;;;;;;;;5114503;28;20211;-68
2023/09/21 14:20:30;;;;;;;4.60;4.20;;;;;;;;;;5113898;28;20618;-68
2023/09/21 14:22:58;;;;;;;4.40;4.00;;;;;;;;;;5113856;28;20213;-68
2023/09/21 14:25:25;;;;;;;4.70;4.25;;;;;;;;;;5114350;28;20205;-68
2023/09/21 14:27:54;;;;;;;4.88;4.38;;;;;;;;;;5114696;28;20559;-68
2023/09/21 14:30:22;;;;;;;4.70;4.30;;;;;;;;;;5113849;28;20603;-68
2023/09/21 14:32:52;;;;;;;5.20;4.70;;;;;;;;;;5114743;28;20209;-68
2023/09/21 14:35:20;;;;;;;5.93;4.18;;;;;;;;;;5113968;28;20604;-68
2023/09/21 14:37:47;;;;;;;5.15;4.25;;;;;;;;;;5115175;28;20246;-68
2023/09/21 14:40:14;;;;;;;4.93;4.43;;;;;;;;;;5115285;28;20245;-68
2023/09/21 14:42:42;;;;;;;4.50;4.10;;;;;;;;;;5114807;28;20203;-68
2023/09/21 14:45:12;;;;;;;4.80;4.35;;;;;;;;;;5114895;28;20206;-68
2023/09/21 14:47:40;;;;;;;5.97;4.60;;;;;;;;;;5114740;28;20234;-68
2023/09/21 14:50:09;;;;;;;5.80;5.15;;;;;;;;;;5114447;28;20592;-68
2023/09/21 14:52:36;;;;;;;5.50;5.00;;;;;;;;;;5114573;28;20209;-68